sensor_id;sensor_type;location;lat;lon;timestamp;temperature;humidity
2202;DHT22;1107;48.654;9.250;2024-03-06T00:01:56;6.80;99.90
2202;DHT22;1107;48.654;9.250;2024-03-06T00:04:23;6.80;99.90
2202;DHT22;1107;48.654;9.250;2024-03-06T00:06:50;6.80;99.90
2202;DHT22;1107;48.654;9.250;2024-03-06T00:09:19;6.80;99.90
2202;DHT22;1107;48.654;9.250;2024-03-06T00:11:48;6.80;99.90
2202;DHT22;1107;48.654;9.250;2024-03-06T00:14:16;6.80;99.90
2202;DHT22;1107;48.654;9.250;2024-03-06T00:16:43;6.70;99.90
2202;DHT22;1107;48.654;9.250;2024-03-06T00:19:10;6.80;99.90
2202;DHT22;1107;48.654;9.250;2024-03-06T00:21:37;6.80;99.90
2202;DHT22;1107;48.654;9.250;2024-03-06T00:24:05;6.90;99.90
2202;DHT22;1107;48.654;9.250;2024-03-06T00:26:32;6.80;99.90
2202;DHT22;1107;48.654;9.250;2024-03-06T00:29:01;6.90;99.90
2202;DHT22;1107;48.654;9.250;2024-03-06T00:31:27;6.90;99.90
2202;DHT22;1107;48.654;9.250;2024-03-06T00:33:54;6.90;99.90
2202;DHT22;1107;48.654;9.250;2024-03-06T00:36:21;6.90;99.90
2202;DHT22;1107;48.654;9.250;2024-03-06T00:38:49;6.80;99.90
2202;DHT22;1107;48.654;9.250;2024-03-06T00:41:16;6.80;99.90
2202;DHT22;1107;48.654;9.250;2024-03-06T00:43:43;6.80;99.90
2202;DHT22;1107;48.654;9.250;2024-03-06T00:46:12;6.80;99.90
2202;DHT22;1107;48.654;9.250;2024-03-06T00:48:39;6.70;99.90
2202;DHT22;1107;48.654;9.250;2024-03-06T00:51:06;6.70;99.90
2202;DHT22;1107;48.654;9.250;2024-03-06T00:53:34;6.70;99.90
2202;DHT22;1107;48.654;9.250;2024-03-06T00:56:01;6.70;99.90
2202;DHT22;1107;48.654;9.250;2024-03-06T00:58:28;6.60;99.90
2202;DHT22;1107;48.654;9.250;2024-03-06T01:00:55;6.60;99.90
2202;DHT22;1107;48.654;9.250;2024-03-06T01:03:25;6.60;99.90
2202;DHT22;1107;48.654;9.250;2024-03-06T01:05:52;6.50;99.90
2202;DHT22;1107;48.654;9.250;2024-03-06T01:08:19;6.50;99.90
2202;DHT22;1107;48.654;9.250;2024-03-06T01:10:46;6.50;99.90
2202;DHT22;1107;48.654;9.250;2024-03-06T01:13:13;6.50;99.90
2202;DHT22;1107;48.654;9.250;2024-03-06T01:15:40;6.50;99.90
2202;DHT22;1107;48.654;9.250;2024-03-06T01:18:07;6.50;99.90
2202;DHT22;1107;48.654;9.250;2024-03-06T01:20:36;6.50;99.90
2202;DHT22;1107;48.654;9.250;2024-03-06T01:23:03;6.40;99.90
2202;DHT22;1107;48.654;9.250;2024-03-06T01:25:30;6.50;99.90
2202;DHT22;1107;48.654;9.250;2024-03-06T01:27:57;6.40;99.90
2202;DHT22;1107;48.654;9.250;2024-03-06T01:30:24;6.40;99.90
2202;DHT22;1107;48.654;9.250;2024-03-06T01:32:51;6.40;99.90
2202;DHT22;1107;48.654;9.250;2024-03-06T01:35:19;6.30;99.90
2202;DHT22;1107;48.654;9.250;2024-03-06T01:37:47;6.30;99.90
2202;DHT22;1107;48.654;9.250;2024-03-06T01:40:14;6.30;99.90
2202;DHT22;1107;48.654;9.250;2024-03-06T01:42:41;6.30;99.90
2202;DHT22;1107;48.654;9.250;2024-03-06T01:45:09;6.30;99.90
2202;DHT22;1107;48.654;9.250;2024-03-06T01:47:36;6.30;99.90
2202;DHT22;1107;48.654;9.250;2024-03-06T01:50:05;6.20;99.90
2202;DHT22;1107;48.654;9.250;2024-03-06T01:52:35;6.20;99.90
2202;DHT22;1107;48.654;9.250;2024-03-06T01:55:04;6.20;99.90
2202;DHT22;1107;48.654;9.250;2024-03-06T01:57:31;6.20;99.90
2202;DHT22;1107;48.654;9.250;2024-03-06T01:59:58;6.20;99.90
2202;DHT22;1107;48.654;9.250;2024-03-06T02:02:25;6.20;99.90
2202;DHT22;1107;48.654;9.250;2024-03-06T02:04:53;6.20;99.90
2202;DHT22;1107;48.654;9.250;2024-03-06T02:07:20;6.30;99.90
2202;DHT22;1107;48.654;9.250;2024-03-06T02:09:47;6.30;99.90
2202;DHT22;1107;48.654;9.250;2024-03-06T02:12:16;6.30;99.90
2202;DHT22;1107;48.654;9.250;2024-03-06T02:14:44;6.30;99.90
2202;DHT22;1107;48.654;9.250;2024-03-06T02:17:11;6.40;99.90
2202;DHT22;1107;48.654;9.250;2024-03-06T02:19:38;6.40;99.90
2202;DHT22;1107;48.654;9.250;2024-03-06T02:22:08;6.40;99.90
2202;DHT22;1107;48.654;9.250;2024-03-06T02:24:35;6.50;99.90
2202;DHT22;1107;48.654;9.250;2024-03-06T02:27:02;6.40;99.90
2202;DHT22;1107;48.654;9.250;2024-03-06T02:29:31;6.40;99.90
2202;DHT22;1107;48.654;9.250;2024-03-06T02:31:58;6.40;99.90
2202;DHT22;1107;48.654;9.250;2024-03-06T02:34:25;6.40;99.90
2202;DHT22;1107;48.654;9.250;2024-03-06T02:36:52;6.40;99.90
2202;DHT22;1107;48.654;9.250;2024-03-06T02:39:20;6.30;99.90
2202;DHT22;1107;48.654;9.250;2024-03-06T02:41:47;6.30;99.90
2202;DHT22;1107;48.654;9.250;2024-03-06T02:44:14;6.30;99.90
2202;DHT22;1107;48.654;9.250;2024-03-06T02:46:46;6.30;99.90
2202;DHT22;1107;48.654;9.250;2024-03-06T02:49:14;6.40;99.90
2202;DHT22;1107;48.654;9.250;2024-03-06T02:51:41;6.40;99.90
2202;DHT22;1107;48.654;9.250;2024-03-06T02:54:08;6.40;99.90
2202;DHT22;1107;48.654;9.250;2024-03-06T02:56:36;6.30;99.90
2202;DHT22;1107;48.654;9.250;2024-03-06T02:59:03;6.30;99.90
2202;DHT22;1107;48.654;9.250;2024-03-06T03:01:30;6.40;99.90
2202;DHT22;1107;48.654;9.250;2024-03-06T03:03:57;6.40;99.90
2202;DHT22;1107;48.654;9.250;2024-03-06T03:06:24;6.30;99.90
2202;DHT22;1107;48.654;9.250;2024-03-06T03:08:51;6.30;99.90
2202;DHT22;1107;48.654;9.250;2024-03-06T03:11:18;6.30;99.90
2202;DHT22;1107;48.654;9.250;2024-03-06T03:13:46;6.30;99.90
2202;DHT22;1107;48.654;9.250;2024-03-06T03:16:17;6.30;99.90
2202;DHT22;1107;48.654;9.250;2024-03-06T03:18:44;6.30;99.90
2202;DHT22;1107;48.654;9.250;2024-03-06T03:21:11;6.30;99.90
2202;DHT22;1107;48.654;9.250;2024-03-06T03:23:39;6.30;99.90
2202;DHT22;1107;48.654;9.250;2024-03-06T03:26:06;6.30;99.90
2202;DHT22;1107;48.654;9.250;2024-03-06T03:28:33;6.30;99.90
2202;DHT22;1107;48.654;9.250;2024-03-06T03:31:01;6.30;99.90
2202;DHT22;1107;48.654;9.250;2024-03-06T03:33:28;6.30;99.90
2202;DHT22;1107;48.654;9.250;2024-03-06T03:35:55;6.30;99.90
2202;DHT22;1107;48.654;9.250;2024-03-06T03:38:22;6.30;99.90
2202;DHT22;1107;48.654;9.250;2024-03-06T03:40:49;6.30;99.90
2202;DHT22;1107;48.654;9.250;2024-03-06T03:43:16;6.40;99.90
2202;DHT22;1107;48.654;9.250;2024-03-06T03:45:43;6.40;99.90
2202;DHT22;1107;48.654;9.250;2024-03-06T03:48:11;6.40;99.90
2202;DHT22;1107;48.654;9.250;2024-03-06T03:50:38;6.40;99.90
2202;DHT22;1107;48.654;9.250;2024-03-06T03:53:05;6.40;99.90
2202;DHT22;1107;48.654;9.250;2024-03-06T03:55:32;6.40;99.90
2202;DHT22;1107;48.654;9.250;2024-03-06T03:57:59;6.40;99.90
2202;DHT22;1107;48.654;9.250;2024-03-06T04:00:26;6.40;99.90
2202;DHT22;1107;48.654;9.250;2024-03-06T04:02:53;6.40;99.90
2202;DHT22;1107;48.654;9.250;2024-03-06T04:05:22;6.50;99.90
2202;DHT22;1107;48.654;9.250;2024-03-06T04:07:49;6.50;99.90
2202;DHT22;1107;48.654;9.250;2024-03-06T04:10:16;6.40;99.90
2202;DHT22;1107;48.654;9.250;2024-03-06T04:12:44;6.40;99.90
2202;DHT22;1107;48.654;9.250;2024-03-06T04:15:11;6.40;99.90
2202;DHT22;1107;48.654;9.250;2024-03-06T04:17:38;6.40;99.90
2202;DHT22;1107;48.654;9.250;2024-03-06T04:20:07;6.40;99.90
2202;DHT22;1107;48.654;9.250;2024-03-06T04:22:38;6.40;99.90
2202;DHT22;1107;48.654;9.250;2024-03-06T04:25:06;6.40;99.90
2202;DHT22;1107;48.654;9.250;2024-03-06T04:27:33;6.40;99.90
2202;DHT22;1107;48.654;9.250;2024-03-06T04:30:00;6.40;99.90
2202;DHT22;1107;48.654;9.250;2024-03-06T04:32:27;6.40;99.90
2202;DHT22;1107;48.654;9.250;2024-03-06T04:34:54;6.40;99.90
2202;DHT22;1107;48.654;9.250;2024-03-06T04:37:21;6.40;99.90
2202;DHT22;1107;48.654;9.250;2024-03-06T04:39:50;6.40;99.90
2202;DHT22;1107;48.654;9.250;2024-03-06T04:42:17;6.40;99.90
2202;DHT22;1107;48.654;9.250;2024-03-06T04:44:45;6.40;99.90
2202;DHT22;1107;48.654;9.250;2024-03-06T04:47:12;6.40;99.90
2202;DHT22;1107;48.654;9.250;2024-03-06T04:49:39;6.40;99.90
2202;DHT22;1107;48.654;9.250;2024-03-06T04:52:06;6.40;99.90
2202;DHT22;1107;48.654;9.250;2024-03-06T04:54:34;6.40;99.90
2202;DHT22;1107;48.654;9.250;2024-03-06T04:57:03;6.40;99.90
2202;DHT22;1107;48.654;9.250;2024-03-06T04:59:30;6.40;99.90
2202;DHT22;1107;48.654;9.250;2024-03-06T05:01:57;6.40;99.90
2202;DHT22;1107;48.654;9.250;2024-03-06T05:04:24;6.40;99.90
2202;DHT22;1107;48.654;9.250;2024-03-06T05:06:51;6.40;99.90
2202;DHT22;1107;48.654;9.250;2024-03-06T05:09:18;6.40;99.90
2202;DHT22;1107;48.654;9.250;2024-03-06T05:11:45;6.40;99.90
2202;DHT22;1107;48.654;9.250;2024-03-06T05:14:13;6.40;99.90
2202;DHT22;1107;48.654;9.250;2024-03-06T05:16:40;6.40;99.90
2202;DHT22;1107;48.654;9.250;2024-03-06T05:19:07;6.40;99.90
2202;DHT22;1107;48.654;9.250;2024-03-06T05:21:34;6.40;99.90
2202;DHT22;1107;48.654;9.250;2024-03-06T05:24:02;6.30;99.90
2202;DHT22;1107;48.654;9.250;2024-03-06T05:26:29;6.40;99.90
2202;DHT22;1107;48.654;9.250;2024-03-06T05:28:55;6.40;99.90
2202;DHT22;1107;48.654;9.250;2024-03-06T05:31:24;6.40;99.90
2202;DHT22;1107;48.654;9.250;2024-03-06T05:33:51;6.40;99.90
2202;DHT22;1107;48.654;9.250;2024-03-06T05:36:18;6.40;99.90
2202;DHT22;1107;48.654;9.250;2024-03-06T05:38:45;6.40;99.90
2202;DHT22;1107;48.654;9.250;2024-03-06T05:41:13;6.40;99.90
2202;DHT22;1107;48.654;9.250;2024-03-06T05:43:40;6.40;99.90
2202;DHT22;1107;48.654;9.250;2024-03-06T05:46:07;6.40;99.90
2202;DHT22;1107;48.654;9.250;2024-03-06T05:48:36;6.40;99.90
2202;DHT22;1107;48.654;9.250;2024-03-06T05:51:03;6.40;99.90
2202;DHT22;1107;48.654;9.250;2024-03-06T05:53:30;6.30;99.90
2202;DHT22;1107;48.654;9.250;2024-03-06T05:55:58;6.30;99.90
2202;DHT22;1107;48.654;9.250;2024-03-06T05:58:25;6.30;99.90
2202;DHT22;1107;48.654;9.250;2024-03-06T06:00:52;6.30;99.90
2202;DHT22;1107;48.654;9.250;2024-03-06T06:03:19;6.30;99.90
2202;DHT22;1107;48.654;9.250;2024-03-06T06:05:47;6.30;99.90
2202;DHT22;1107;48.654;9.250;2024-03-06T06:08:14;6.30;99.90
2202;DHT22;1107;48.654;9.250;2024-03-06T06:10:41;6.40;99.90
2202;DHT22;1107;48.654;9.250;2024-03-06T06:13:08;6.40;99.90
2202;DHT22;1107;48.654;9.250;2024-03-06T06:15:35;6.40;99.90
2202;DHT22;1107;48.654;9.250;2024-03-06T06:18:02;6.50;99.90
2202;DHT22;1107;48.654;9.250;2024-03-06T06:20:29;6.50;99.90
2202;DHT22;1107;48.654;9.250;2024-03-06T06:22:57;6.40;99.90
2202;DHT22;1107;48.654;9.250;2024-03-06T06:25:24;6.50;99.90
2202;DHT22;1107;48.654;9.250;2024-03-06T06:27:51;6.50;99.90
2202;DHT22;1107;48.654;9.250;2024-03-06T06:30:18;6.50;99.90
2202;DHT22;1107;48.654;9.250;2024-03-06T06:32:45;6.50;99.90
2202;DHT22;1107;48.654;9.250;2024-03-06T06:35:12;6.50;99.90
2202;DHT22;1107;48.654;9.250;2024-03-06T06:37:40;6.60;99.90
2202;DHT22;1107;48.654;9.250;2024-03-06T06:40:09;6.70;99.90
2202;DHT22;1107;48.654;9.250;2024-03-06T06:42:37;6.60;99.90
2202;DHT22;1107;48.654;9.250;2024-03-06T06:45:05;6.70;99.90
2202;DHT22;1107;48.654;9.250;2024-03-06T06:47:35;6.70;99.90
2202;DHT22;1107;48.654;9.250;2024-03-06T06:50:02;6.70;99.90
2202;DHT22;1107;48.654;9.250;2024-03-06T06:52:31;6.60;99.90
2202;DHT22;1107;48.654;9.250;2024-03-06T06:54:59;6.60;99.90
2202;DHT22;1107;48.654;9.250;2024-03-06T06:57:27;6.70;99.90
2202;DHT22;1107;48.654;9.250;2024-03-06T06:59:54;6.70;99.90
2202;DHT22;1107;48.654;9.250;2024-03-06T07:02:21;6.70;99.90
2202;DHT22;1107;48.654;9.250;2024-03-06T07:04:48;6.80;99.90
2202;DHT22;1107;48.654;9.250;2024-03-06T07:07:15;6.80;99.90
2202;DHT22;1107;48.654;9.250;2024-03-06T07:09:42;6.80;99.90
2202;DHT22;1107;48.654;9.250;2024-03-06T07:12:09;6.90;99.90
2202;DHT22;1107;48.654;9.250;2024-03-06T07:14:38;6.80;99.90
2202;DHT22;1107;48.654;9.250;2024-03-06T07:17:05;6.80;99.90
2202;DHT22;1107;48.654;9.250;2024-03-06T07:19:32;6.80;99.90
2202;DHT22;1107;48.654;9.250;2024-03-06T07:21:58;6.80;99.90
2202;DHT22;1107;48.654;9.250;2024-03-06T07:24:25;6.70;99.90
2202;DHT22;1107;48.654;9.250;2024-03-06T07:26:52;6.70;99.90
2202;DHT22;1107;48.654;9.250;2024-03-06T07:29:19;6.70;99.90
2202;DHT22;1107;48.654;9.250;2024-03-06T07:31:48;6.70;99.90
2202;DHT22;1107;48.654;9.250;2024-03-06T07:34:15;6.80;99.90
2202;DHT22;1107;48.654;9.250;2024-03-06T07:36:43;6.80;99.90
2202;DHT22;1107;48.654;9.250;2024-03-06T07:39:11;6.90;99.90
2202;DHT22;1107;48.654;9.250;2024-03-06T07:41:39;6.90;99.90
2202;DHT22;1107;48.654;9.250;2024-03-06T07:44:06;6.90;99.90
2202;DHT22;1107;48.654;9.250;2024-03-06T07:46:34;6.90;99.90
2202;DHT22;1107;48.654;9.250;2024-03-06T07:49:02;6.90;99.90
2202;DHT22;1107;48.654;9.250;2024-03-06T07:51:30;7.00;99.90
2202;DHT22;1107;48.654;9.250;2024-03-06T07:53:57;7.00;99.90
2202;DHT22;1107;48.654;9.250;2024-03-06T07:56:25;7.10;99.90
2202;DHT22;1107;48.654;9.250;2024-03-06T07:58:52;7.10;99.90
2202;DHT22;1107;48.654;9.250;2024-03-06T08:01:20;7.20;99.90
2202;DHT22;1107;48.654;9.250;2024-03-06T08:03:47;7.20;99.90
2202;DHT22;1107;48.654;9.250;2024-03-06T08:06:15;7.30;99.90
2202;DHT22;1107;48.654;9.250;2024-03-06T08:08:43;7.40;99.90
2202;DHT22;1107;48.654;9.250;2024-03-06T08:11:10;7.30;99.90
2202;DHT22;1107;48.654;9.250;2024-03-06T08:13:38;7.30;99.90
2202;DHT22;1107;48.654;9.250;2024-03-06T08:16:05;7.30;99.90
2202;DHT22;1107;48.654;9.250;2024-03-06T08:18:34;7.30;99.90
2202;DHT22;1107;48.654;9.250;2024-03-06T08:21:01;7.30;99.90
2202;DHT22;1107;48.654;9.250;2024-03-06T08:23:30;7.40;99.90
2202;DHT22;1107;48.654;9.250;2024-03-06T08:25:58;7.40;99.90
2202;DHT22;1107;48.654;9.250;2024-03-06T08:28:25;7.50;99.90
2202;DHT22;1107;48.654;9.250;2024-03-06T08:30:52;7.50;99.90
2202;DHT22;1107;48.654;9.250;2024-03-06T08:33:19;7.50;99.90
2202;DHT22;1107;48.654;9.250;2024-03-06T08:35:48;7.50;99.90
2202;DHT22;1107;48.654;9.250;2024-03-06T08:38:15;7.40;99.90
2202;DHT22;1107;48.654;9.250;2024-03-06T08:40:44;7.40;99.90
2202;DHT22;1107;48.654;9.250;2024-03-06T08:43:12;7.40;99.90
2202;DHT22;1107;48.654;9.250;2024-03-06T08:45:41;7.40;99.90
2202;DHT22;1107;48.654;9.250;2024-03-06T08:48:08;7.50;99.90
2202;DHT22;1107;48.654;9.250;2024-03-06T08:50:35;7.50;99.90
2202;DHT22;1107;48.654;9.250;2024-03-06T08:53:02;7.40;99.90
2202;DHT22;1107;48.654;9.250;2024-03-06T08:55:29;7.60;99.90
2202;DHT22;1107;48.654;9.250;2024-03-06T08:57:58;7.60;99.90
2202;DHT22;1107;48.654;9.250;2024-03-06T09:00:26;7.70;99.90
2202;DHT22;1107;48.654;9.250;2024-03-06T09:02:53;7.70;99.90
2202;DHT22;1107;48.654;9.250;2024-03-06T09:05:20;7.60;99.90
2202;DHT22;1107;48.654;9.250;2024-03-06T09:07:47;7.60;99.90
2202;DHT22;1107;48.654;9.250;2024-03-06T09:10:14;7.60;99.90
2202;DHT22;1107;48.654;9.250;2024-03-06T09:12:41;7.50;99.90
2202;DHT22;1107;48.654;9.250;2024-03-06T09:15:10;7.60;99.90
2202;DHT22;1107;48.654;9.250;2024-03-06T09:17:37;7.60;99.90
2202;DHT22;1107;48.654;9.250;2024-03-06T09:20:05;7.70;99.90
2202;DHT22;1107;48.654;9.250;2024-03-06T09:22:36;7.80;99.90
2202;DHT22;1107;48.654;9.250;2024-03-06T09:25:04;7.80;99.90
2202;DHT22;1107;48.654;9.250;2024-03-06T09:27:31;7.80;99.90
2202;DHT22;1107;48.654;9.250;2024-03-06T09:29:58;7.80;99.90
2202;DHT22;1107;48.654;9.250;2024-03-06T09:32:26;7.80;99.90
2202;DHT22;1107;48.654;9.250;2024-03-06T09:34:53;7.80;99.90
2202;DHT22;1107;48.654;9.250;2024-03-06T09:37:20;7.70;99.90
2202;DHT22;1107;48.654;9.250;2024-03-06T09:39:47;7.60;99.90
2202;DHT22;1107;48.654;9.250;2024-03-06T09:42:15;7.50;99.90
2202;DHT22;1107;48.654;9.250;2024-03-06T09:44:42;7.50;99.90
2202;DHT22;1107;48.654;9.250;2024-03-06T09:47:12;7.50;99.90
2202;DHT22;1107;48.654;9.250;2024-03-06T09:49:41;7.50;99.90
2202;DHT22;1107;48.654;9.250;2024-03-06T09:52:08;7.50;99.90
2202;DHT22;1107;48.654;9.250;2024-03-06T09:54:37;7.60;99.90
2202;DHT22;1107;48.654;9.250;2024-03-06T09:57:05;7.70;99.90
2202;DHT22;1107;48.654;9.250;2024-03-06T09:59:32;7.70;99.90
2202;DHT22;1107;48.654;9.250;2024-03-06T10:02:01;7.50;99.90
2202;DHT22;1107;48.654;9.250;2024-03-06T10:04:33;7.50;99.90
2202;DHT22;1107;48.654;9.250;2024-03-06T10:07:04;7.50;99.90
2202;DHT22;1107;48.654;9.250;2024-03-06T10:09:34;7.50;99.90
2202;DHT22;1107;48.654;9.250;2024-03-06T10:12:01;7.50;99.90
2202;DHT22;1107;48.654;9.250;2024-03-06T10:14:30;7.50;99.90
2202;DHT22;1107;48.654;9.250;2024-03-06T10:16:59;7.60;99.90
2202;DHT22;1107;48.654;9.250;2024-03-06T10:19:27;7.60;99.90
2202;DHT22;1107;48.654;9.250;2024-03-06T10:21:55;7.60;99.90
2202;DHT22;1107;48.654;9.250;2024-03-06T10:24:25;7.80;99.90
2202;DHT22;1107;48.654;9.250;2024-03-06T10:26:54;7.90;99.90
2202;DHT22;1107;48.654;9.250;2024-03-06T10:29:22;7.90;99.90
2202;DHT22;1107;48.654;9.250;2024-03-06T10:31:51;8.00;99.90
2202;DHT22;1107;48.654;9.250;2024-03-06T10:34:20;8.00;99.90
2202;DHT22;1107;48.654;9.250;2024-03-06T10:36:53;8.00;99.90
2202;DHT22;1107;48.654;9.250;2024-03-06T10:39:21;8.00;99.90
2202;DHT22;1107;48.654;9.250;2024-03-06T10:41:52;8.00;99.90
2202;DHT22;1107;48.654;9.250;2024-03-06T10:44:22;8.10;99.90
2202;DHT22;1107;48.654;9.250;2024-03-06T10:46:55;8.00;99.90
2202;DHT22;1107;48.654;9.250;2024-03-06T10:49:24;8.00;99.90
2202;DHT22;1107;48.654;9.250;2024-03-06T10:51:54;8.00;99.90
2202;DHT22;1107;48.654;9.250;2024-03-06T10:54:27;8.00;99.90
2202;DHT22;1107;48.654;9.250;2024-03-06T10:56:56;8.10;99.90
2202;DHT22;1107;48.654;9.250;2024-03-06T10:59:25;8.00;99.90
2202;DHT22;1107;48.654;9.250;2024-03-06T11:01:54;8.10;99.90
2202;DHT22;1107;48.654;9.250;2024-03-06T11:04:22;8.10;99.90
2202;DHT22;1107;48.654;9.250;2024-03-06T11:06:50;8.10;99.90
2202;DHT22;1107;48.654;9.250;2024-03-06T11:09:17;8.10;99.90
2202;DHT22;1107;48.654;9.250;2024-03-06T11:11:48;8.10;99.90
2202;DHT22;1107;48.654;9.250;2024-03-06T11:14:18;8.10;99.90
2202;DHT22;1107;48.654;9.250;2024-03-06T11:16:58;8.10;99.90
2202;DHT22;1107;48.654;9.250;2024-03-06T11:19:25;8.10;99.90
2202;DHT22;1107;48.654;9.250;2024-03-06T11:21:52;8.00;99.90
2202;DHT22;1107;48.654;9.250;2024-03-06T11:24:20;8.00;99.90
2202;DHT22;1107;48.654;9.250;2024-03-06T11:26:55;8.00;99.90
2202;DHT22;1107;48.654;9.250;2024-03-06T11:29:32;8.00;99.90
2202;DHT22;1107;48.654;9.250;2024-03-06T11:32:17;8.00;99.90
2202;DHT22;1107;48.654;9.250;2024-03-06T11:34:44;7.90;99.90
2202;DHT22;1107;48.654;9.250;2024-03-06T11:37:11;8.00;99.90
2202;DHT22;1107;48.654;9.250;2024-03-06T11:39:39;7.90;99.90
2202;DHT22;1107;48.654;9.250;2024-03-06T11:42:08;7.90;99.90
2202;DHT22;1107;48.654;9.250;2024-03-06T11:44:37;7.90;99.90
2202;DHT22;1107;48.654;9.250;2024-03-06T11:47:19;7.80;99.90
2202;DHT22;1107;48.654;9.250;2024-03-06T11:49:46;7.80;99.90
2202;DHT22;1107;48.654;9.250;2024-03-06T11:52:13;7.70;99.90
2202;DHT22;1107;48.654;9.250;2024-03-06T11:54:40;7.70;99.90
2202;DHT22;1107;48.654;9.250;2024-03-06T11:57:08;7.70;99.90
2202;DHT22;1107;48.654;9.250;2024-03-06T11:59:38;7.60;99.90
2202;DHT22;1107;48.654;9.250;2024-03-06T12:02:06;7.60;99.90
2202;DHT22;1107;48.654;9.250;2024-03-06T12:04:34;7.70;99.90
2202;DHT22;1107;48.654;9.250;2024-03-06T12:07:02;7.80;99.90
2202;DHT22;1107;48.654;9.250;2024-03-06T12:09:32;7.80;99.90
2202;DHT22;1107;48.654;9.250;2024-03-06T12:11:59;7.90;99.90
2202;DHT22;1107;48.654;9.250;2024-03-06T12:14:27;7.90;99.90
2202;DHT22;1107;48.654;9.250;2024-03-06T12:16:56;7.90;99.90
2202;DHT22;1107;48.654;9.250;2024-03-06T12:19:25;7.80;99.90
2202;DHT22;1107;48.654;9.250;2024-03-06T12:21:53;7.90;99.90
2202;DHT22;1107;48.654;9.250;2024-03-06T12:24:20;8.00;99.90
2202;DHT22;1107;48.654;9.250;2024-03-06T12:26:59;8.00;99.90
2202;DHT22;1107;48.654;9.250;2024-03-06T12:29:28;8.10;99.90
2202;DHT22;1107;48.654;9.250;2024-03-06T12:31:58;8.10;99.90
2202;DHT22;1107;48.654;9.250;2024-03-06T12:34:25;8.10;99.90
2202;DHT22;1107;48.654;9.250;2024-03-06T12:36:52;8.10;99.90
2202;DHT22;1107;48.654;9.250;2024-03-06T12:39:19;8.10;99.90
2202;DHT22;1107;48.654;9.250;2024-03-06T12:41:48;8.10;99.90
2202;DHT22;1107;48.654;9.250;2024-03-06T12:44:16;8.10;99.90
2202;DHT22;1107;48.654;9.250;2024-03-06T12:46:43;8.10;99.90
2202;DHT22;1107;48.654;9.250;2024-03-06T12:49:11;8.10;99.90
2202;DHT22;1107;48.654;9.250;2024-03-06T12:51:38;8.10;99.90
2202;DHT22;1107;48.654;9.250;2024-03-06T12:54:06;8.00;99.90
2202;DHT22;1107;48.654;9.250;2024-03-06T12:56:34;8.00;99.90
2202;DHT22;1107;48.654;9.250;2024-03-06T12:59:01;8.10;99.90
2202;DHT22;1107;48.654;9.250;2024-03-06T13:01:28;8.10;99.90
2202;DHT22;1107;48.654;9.250;2024-03-06T13:03:55;8.00;99.90
2202;DHT22;1107;48.654;9.250;2024-03-06T13:06:24;8.00;99.90
2202;DHT22;1107;48.654;9.250;2024-03-06T13:08:53;8.00;99.90
2202;DHT22;1107;48.654;9.250;2024-03-06T13:11:20;8.00;99.90
2202;DHT22;1107;48.654;9.250;2024-03-06T13:13:48;8.00;99.90
2202;DHT22;1107;48.654;9.250;2024-03-06T13:16:15;7.90;99.90
2202;DHT22;1107;48.654;9.250;2024-03-06T13:18:42;7.90;99.90
2202;DHT22;1107;48.654;9.250;2024-03-06T13:21:09;7.90;99.90
2202;DHT22;1107;48.654;9.250;2024-03-06T13:23:37;7.80;99.90
2202;DHT22;1107;48.654;9.250;2024-03-06T13:26:04;7.80;99.90
2202;DHT22;1107;48.654;9.250;2024-03-06T13:28:31;7.80;99.90
2202;DHT22;1107;48.654;9.250;2024-03-06T13:30:59;7.80;99.90
2202;DHT22;1107;48.654;9.250;2024-03-06T13:33:26;7.70;99.90
2202;DHT22;1107;48.654;9.250;2024-03-06T13:35:53;7.70;99.90
2202;DHT22;1107;48.654;9.250;2024-03-06T13:38:21;7.70;99.90
2202;DHT22;1107;48.654;9.250;2024-03-06T13:40:49;7.80;99.90
2202;DHT22;1107;48.654;9.250;2024-03-06T13:43:16;7.80;99.90
2202;DHT22;1107;48.654;9.250;2024-03-06T13:45:48;7.80;99.90
2202;DHT22;1107;48.654;9.250;2024-03-06T13:48:15;7.70;99.90
2202;DHT22;1107;48.654;9.250;2024-03-06T13:50:43;7.80;99.90
2202;DHT22;1107;48.654;9.250;2024-03-06T13:53:10;7.80;99.90
2202;DHT22;1107;48.654;9.250;2024-03-06T13:55:37;7.80;99.90
2202;DHT22;1107;48.654;9.250;2024-03-06T13:58:05;7.90;99.90
2202;DHT22;1107;48.654;9.250;2024-03-06T14:00:32;7.90;99.90
2202;DHT22;1107;48.654;9.250;2024-03-06T14:03:01;7.90;99.90
2202;DHT22;1107;48.654;9.250;2024-03-06T14:05:28;7.90;99.90
2202;DHT22;1107;48.654;9.250;2024-03-06T14:07:55;7.90;99.90
2202;DHT22;1107;48.654;9.250;2024-03-06T14:10:22;7.80;99.90
2202;DHT22;1107;48.654;9.250;2024-03-06T14:12:50;7.70;99.90
2202;DHT22;1107;48.654;9.250;2024-03-06T14:15:19;7.70;99.90
2202;DHT22;1107;48.654;9.250;2024-03-06T14:17:48;7.70;99.90
2202;DHT22;1107;48.654;9.250;2024-03-06T14:20:15;7.70;99.90
2202;DHT22;1107;48.654;9.250;2024-03-06T14:22:42;7.70;99.90
2202;DHT22;1107;48.654;9.250;2024-03-06T14:25:09;7.70;99.90
2202;DHT22;1107;48.654;9.250;2024-03-06T14:27:37;7.60;99.90
2202;DHT22;1107;48.654;9.250;2024-03-06T14:30:05;7.60;99.90
2202;DHT22;1107;48.654;9.250;2024-03-06T14:32:34;7.70;99.90
2202;DHT22;1107;48.654;9.250;2024-03-06T14:35:01;7.60;99.90
2202;DHT22;1107;48.654;9.250;2024-03-06T14:37:28;7.60;99.90
2202;DHT22;1107;48.654;9.250;2024-03-06T14:39:55;7.60;99.90
2202;DHT22;1107;48.654;9.250;2024-03-06T14:42:22;7.60;99.90
2202;DHT22;1107;48.654;9.250;2024-03-06T14:44:50;7.60;99.90
2202;DHT22;1107;48.654;9.250;2024-03-06T14:47:16;7.70;99.90
2202;DHT22;1107;48.654;9.250;2024-03-06T14:49:45;7.70;99.90
2202;DHT22;1107;48.654;9.250;2024-03-06T14:52:12;7.70;99.90
2202;DHT22;1107;48.654;9.250;2024-03-06T14:54:39;7.60;99.90
2202;DHT22;1107;48.654;9.250;2024-03-06T14:57:07;7.60;99.90
2202;DHT22;1107;48.654;9.250;2024-03-06T14:59:34;7.60;99.90
2202;DHT22;1107;48.654;9.250;2024-03-06T15:02:01;7.60;99.90
2202;DHT22;1107;48.654;9.250;2024-03-06T15:04:29;7.60;99.90
2202;DHT22;1107;48.654;9.250;2024-03-06T15:06:58;7.60;99.90
2202;DHT22;1107;48.654;9.250;2024-03-06T15:09:25;7.70;99.90
2202;DHT22;1107;48.654;9.250;2024-03-06T15:11:53;7.80;99.90
2202;DHT22;1107;48.654;9.250;2024-03-06T15:14:22;7.80;99.90
2202;DHT22;1107;48.654;9.250;2024-03-06T15:16:49;7.70;99.90
2202;DHT22;1107;48.654;9.250;2024-03-06T15:19:16;7.70;99.90
2202;DHT22;1107;48.654;9.250;2024-03-06T15:21:42;7.70;99.90
2202;DHT22;1107;48.654;9.250;2024-03-06T15:24:11;7.70;99.90
2202;DHT22;1107;48.654;9.250;2024-03-06T15:26:38;7.70;99.90
2202;DHT22;1107;48.654;9.250;2024-03-06T15:29:05;7.60;99.90
2202;DHT22;1107;48.654;9.250;2024-03-06T15:31:32;7.70;99.90
2202;DHT22;1107;48.654;9.250;2024-03-06T15:33:59;7.70;99.90
2202;DHT22;1107;48.654;9.250;2024-03-06T15:36:27;7.70;99.90
2202;DHT22;1107;48.654;9.250;2024-03-06T15:38:54;7.70;99.90
2202;DHT22;1107;48.654;9.250;2024-03-06T15:41:24;7.70;99.90
2202;DHT22;1107;48.654;9.250;2024-03-06T15:43:51;7.70;99.90
2202;DHT22;1107;48.654;9.250;2024-03-06T15:46:17;7.70;99.90
2202;DHT22;1107;48.654;9.250;2024-03-06T15:48:44;7.70;99.90
2202;DHT22;1107;48.654;9.250;2024-03-06T15:51:11;7.70;99.90
2202;DHT22;1107;48.654;9.250;2024-03-06T15:53:39;7.70;99.90
2202;DHT22;1107;48.654;9.250;2024-03-06T15:56:06;7.70;99.90
2202;DHT22;1107;48.654;9.250;2024-03-06T15:58:36;7.70;99.90
2202;DHT22;1107;48.654;9.250;2024-03-06T16:01:03;7.70;99.90
2202;DHT22;1107;48.654;9.250;2024-03-06T16:03:31;7.70;99.90
2202;DHT22;1107;48.654;9.250;2024-03-06T16:05:58;7.70;99.90
2202;DHT22;1107;48.654;9.250;2024-03-06T16:08:25;7.70;99.90
2202;DHT22;1107;48.654;9.250;2024-03-06T16:10:55;7.70;99.90
2202;DHT22;1107;48.654;9.250;2024-03-06T16:13:21;7.70;99.90
2202;DHT22;1107;48.654;9.250;2024-03-06T16:15:50;7.70;99.90
2202;DHT22;1107;48.654;9.250;2024-03-06T16:18:17;7.60;99.90
2202;DHT22;1107;48.654;9.250;2024-03-06T16:20:44;7.60;99.90